sensor_id;sensor_type;location;lat;lon;timestamp;P1;durP1;ratioP1;P2;durP2;ratioP2
39654;SDS011;25336;59.944;11.010;2024-02-21T00:01:01;27.38;;;6.68;;
39654;SDS011;25336;59.944;11.010;2024-02-21T00:03:27;10.32;;;5.78;;
39654;SDS011;25336;59.944;11.010;2024-02-21T00:05:52;71.57;;;8.80;;
39654;SDS011;25336;59.944;11.010;2024-02-21T00:08:18;16.77;;;5.55;;
39654;SDS011;25336;59.944;11.010;2024-02-21T00:10:45;96.05;;;8.80;;
39654;SDS011;25336;59.944;11.010;2024-02-21T00:13:11;42.10;;;6.15;;
39654;SDS011;25336;59.944;11.010;2024-02-21T00:15:38;90.05;;;8.13;;
39654;SDS011;25336;59.944;11.010;2024-02-21T00:18:04;109.40;;;9.18;;
39654;SDS011;25336;59.944;11.010;2024-02-21T00:20:30;57.13;;;6.38;;
39654;SDS011;25336;59.944;11.010;2024-02-21T00:22:55;109.10;;;9.38;;
39654;SDS011;25336;59.944;11.010;2024-02-21T00:25:21;111.00;;;7.70;;
39654;SDS011;25336;59.944;11.010;2024-02-21T00:27:47;95.63;;;7.13;;
39654;SDS011;25336;59.944;11.010;2024-02-21T00:30:13;90.90;;;8.75;;
39654;SDS011;25336;59.944;11.010;2024-02-21T00:32:38;99.95;;;7.85;;
39654;SDS011;25336;59.944;11.010;2024-02-21T00:35:04;45.65;;;4.82;;
39654;SDS011;25336;59.944;11.010;2024-02-21T00:37:30;67.72;;;6.53;;
39654;SDS011;25336;59.944;11.010;2024-02-21T00:39:56;132.02;;;10.30;;
39654;SDS011;25336;59.944;11.010;2024-02-21T00:42:23;45.72;;;5.60;;
39654;SDS011;25336;59.944;11.010;2024-02-21T00:44:49;122.85;;;8.27;;
39654;SDS011;25336;59.944;11.010;2024-02-21T00:47:14;77.43;;;7.82;;
39654;SDS011;25336;59.944;11.010;2024-02-21T00:49:41;37.55;;;5.78;;
39654;SDS011;25336;59.944;11.010;2024-02-21T00:52:07;57.03;;;5.57;;
39654;SDS011;25336;59.944;11.010;2024-02-21T00:54:33;68.97;;;6.82;;
39654;SDS011;25336;59.944;11.010;2024-02-21T00:56:59;49.42;;;5.28;;
39654;SDS011;25336;59.944;11.010;2024-02-21T00:59:24;85.18;;;8.43;;
39654;SDS011;25336;59.944;11.010;2024-02-21T01:01:50;115.72;;;10.00;;
39654;SDS011;25336;59.944;11.010;2024-02-21T01:04:18;66.22;;;7.65;;
39654;SDS011;25336;59.944;11.010;2024-02-21T01:06:49;91.13;;;10.15;;
39654;SDS011;25336;59.944;11.010;2024-02-21T01:09:15;62.67;;;8.88;;
39654;SDS011;25336;59.944;11.010;2024-02-21T01:11:41;42.45;;;7.10;;
39654;SDS011;25336;59.944;11.010;2024-02-21T01:14:07;23.65;;;6.05;;
39654;SDS011;25336;59.944;11.010;2024-02-21T01:16:32;40.03;;;5.47;;
39654;SDS011;25336;59.944;11.010;2024-02-21T01:18:58;42.85;;;6.18;;
39654;SDS011;25336;59.944;11.010;2024-02-21T01:21:25;66.43;;;8.50;;
39654;SDS011;25336;59.944;11.010;2024-02-21T01:23:51;47.92;;;6.43;;
39654;SDS011;25336;59.944;11.010;2024-02-21T01:26:17;74.72;;;7.38;;
39654;SDS011;25336;59.944;11.010;2024-02-21T01:28:43;46.58;;;6.75;;
39654;SDS011;25336;59.944;11.010;2024-02-21T01:31:09;87.10;;;8.35;;
39654;SDS011;25336;59.944;11.010;2024-02-21T01:33:36;44.15;;;5.40;;
39654;SDS011;25336;59.944;11.010;2024-02-21T01:36:04;52.60;;;6.18;;
39654;SDS011;25336;59.944;11.010;2024-02-21T01:38:33;23.92;;;4.40;;
39654;SDS011;25336;59.944;11.010;2024-02-21T01:40:59;62.20;;;6.57;;
39654;SDS011;25336;59.944;11.010;2024-02-21T01:43:25;83.75;;;7.40;;
39654;SDS011;25336;59.944;11.010;2024-02-21T01:45:54;100.97;;;8.13;;
39654;SDS011;25336;59.944;11.010;2024-02-21T01:48:25;112.20;;;7.10;;
39654;SDS011;25336;59.944;11.010;2024-02-21T01:50:51;70.68;;;6.50;;
39654;SDS011;25336;59.944;11.010;2024-02-21T01:53:27;15.68;;;3.08;;
39654;SDS011;25336;59.944;11.010;2024-02-21T01:55:55;12.43;;;4.32;;
39654;SDS011;25336;59.944;11.010;2024-02-21T01:58:21;54.20;;;5.70;;
39654;SDS011;25336;59.944;11.010;2024-02-21T02:00:48;60.97;;;5.60;;
39654;SDS011;25336;59.944;11.010;2024-02-21T02:03:15;116.00;;;7.65;;
39654;SDS011;25336;59.944;11.010;2024-02-21T02:08:13;52.53;;;5.05;;
39654;SDS011;25336;59.944;11.010;2024-02-21T02:10:40;30.42;;;4.32;;
39654;SDS011;25336;59.944;11.010;2024-02-21T02:13:06;33.70;;;4.35;;
39654;SDS011;25336;59.944;11.010;2024-02-21T02:15:38;78.40;;;6.43;;
39654;SDS011;25336;59.944;11.010;2024-02-21T02:18:09;44.00;;;6.20;;
39654;SDS011;25336;59.944;11.010;2024-02-21T02:20:35;93.40;;;7.47;;
39654;SDS011;25336;59.944;11.010;2024-02-21T02:23:07;76.63;;;6.32;;
39654;SDS011;25336;59.944;11.010;2024-02-21T02:25:37;33.47;;;5.28;;
39654;SDS011;25336;59.944;11.010;2024-02-21T02:28:03;86.45;;;6.43;;
39654;SDS011;25336;59.944;11.010;2024-02-21T02:30:38;73.05;;;6.55;;
39654;SDS011;25336;59.944;11.010;2024-02-21T02:33:04;21.90;;;4.78;;
39654;SDS011;25336;59.944;11.010;2024-02-21T02:35:30;23.13;;;4.28;;
39654;SDS011;25336;59.944;11.010;2024-02-21T02:37:57;21.65;;;4.20;;
39654;SDS011;25336;59.944;11.010;2024-02-21T02:40:23;49.88;;;5.85;;
39654;SDS011;25336;59.944;11.010;2024-02-21T02:42:50;166.07;;;10.57;;
39654;SDS011;25336;59.944;11.010;2024-02-21T02:45:16;33.97;;;4.10;;
39654;SDS011;25336;59.944;11.010;2024-02-21T02:47:46;83.85;;;6.82;;
39654;SDS011;25336;59.944;11.010;2024-02-21T02:50:14;40.53;;;5.95;;
39654;SDS011;25336;59.944;11.010;2024-02-21T02:52:40;82.68;;;6.88;;
39654;SDS011;25336;59.944;11.010;2024-02-21T02:55:06;24.08;;;3.88;;
39654;SDS011;25336;59.944;11.010;2024-02-21T02:57:32;29.85;;;4.38;;
39654;SDS011;25336;59.944;11.010;2024-02-21T02:59:58;35.83;;;3.88;;
39654;SDS011;25336;59.944;11.010;2024-02-21T03:02:27;90.30;;;6.03;;
39654;SDS011;25336;59.944;11.010;2024-02-21T03:04:53;90.57;;;6.32;;
39654;SDS011;25336;59.944;11.010;2024-02-21T03:07:19;67.13;;;5.65;;
39654;SDS011;25336;59.944;11.010;2024-02-21T03:09:45;90.93;;;5.47;;
39654;SDS011;25336;59.944;11.010;2024-02-21T03:12:11;57.38;;;4.65;;
39654;SDS011;25336;59.944;11.010;2024-02-21T03:14:37;30.00;;;3.67;;
39654;SDS011;25336;59.944;11.010;2024-02-21T03:17:03;24.92;;;4.07;;
39654;SDS011;25336;59.944;11.010;2024-02-21T03:19:32;41.50;;;4.38;;
39654;SDS011;25336;59.944;11.010;2024-02-21T03:21:58;49.88;;;4.55;;
39654;SDS011;25336;59.944;11.010;2024-02-21T03:24:24;106.18;;;7.63;;
39654;SDS011;25336;59.944;11.010;2024-02-21T03:26:50;47.55;;;5.10;;
39654;SDS011;25336;59.944;11.010;2024-02-21T03:29:16;27.33;;;4.65;;
39654;SDS011;25336;59.944;11.010;2024-02-21T03:31:42;22.45;;;3.85;;
39654;SDS011;25336;59.944;11.010;2024-02-21T03:34:09;18.15;;;3.83;;
39654;SDS011;25336;59.944;11.010;2024-02-21T03:36:35;10.98;;;3.97;;
39654;SDS011;25336;59.944;11.010;2024-02-21T03:39:01;22.80;;;3.65;;
39654;SDS011;25336;59.944;11.010;2024-02-21T03:41:27;87.82;;;4.97;;
39654;SDS011;25336;59.944;11.010;2024-02-21T03:43:54;126.75;;;7.18;;
39654;SDS011;25336;59.944;11.010;2024-02-21T03:46:20;60.33;;;6.63;;
39654;SDS011;25336;59.944;11.010;2024-02-21T03:48:46;47.65;;;4.88;;
39654;SDS011;25336;59.944;11.010;2024-02-21T03:51:11;74.45;;;5.18;;
39654;SDS011;25336;59.944;11.010;2024-02-21T03:53:37;90.40;;;7.05;;
39654;SDS011;25336;59.944;11.010;2024-02-21T03:56:03;129.98;;;8.55;;
39654;SDS011;25336;59.944;11.010;2024-02-21T03:58:32;43.50;;;4.88;;
39654;SDS011;25336;59.944;11.010;2024-02-21T04:01:00;57.47;;;6.32;;
39654;SDS011;25336;59.944;11.010;2024-02-21T04:03:30;62.08;;;4.88;;
39654;SDS011;25336;59.944;11.010;2024-02-21T04:05:56;91.63;;;6.45;;
39654;SDS011;25336;59.944;11.010;2024-02-21T04:08:22;82.32;;;5.95;;
39654;SDS011;25336;59.944;11.010;2024-02-21T04:10:48;72.32;;;6.32;;
39654;SDS011;25336;59.944;11.010;2024-02-21T04:13:18;76.35;;;6.32;;
39654;SDS011;25336;59.944;11.010;2024-02-21T04:15:45;66.95;;;5.70;;
39654;SDS011;25336;59.944;11.010;2024-02-21T04:18:11;47.28;;;4.72;;
39654;SDS011;25336;59.944;11.010;2024-02-21T04:20:36;88.43;;;8.68;;
39654;SDS011;25336;59.944;11.010;2024-02-21T04:23:02;28.20;;;4.25;;
39654;SDS011;25336;59.944;11.010;2024-02-21T04:25:28;91.68;;;6.70;;
39654;SDS011;25336;59.944;11.010;2024-02-21T04:27:54;116.05;;;9.00;;
39654;SDS011;25336;59.944;11.010;2024-02-21T04:30:19;75.88;;;6.65;;
39654;SDS011;25336;59.944;11.010;2024-02-21T04:32:45;78.68;;;7.53;;
39654;SDS011;25336;59.944;11.010;2024-02-21T04:35:11;49.67;;;5.70;;
39654;SDS011;25336;59.944;11.010;2024-02-21T04:37:36;85.00;;;6.45;;
39654;SDS011;25336;59.944;11.010;2024-02-21T04:40:02;85.85;;;6.43;;
39654;SDS011;25336;59.944;11.010;2024-02-21T04:42:28;113.80;;;7.43;;
39654;SDS011;25336;59.944;11.010;2024-02-21T04:44:53;89.60;;;6.63;;
39654;SDS011;25336;59.944;11.010;2024-02-21T04:47:19;117.55;;;10.15;;
39654;SDS011;25336;59.944;11.010;2024-02-21T04:49:45;135.00;;;8.43;;
39654;SDS011;25336;59.944;11.010;2024-02-21T04:52:11;67.30;;;5.07;;
39654;SDS011;25336;59.944;11.010;2024-02-21T04:54:37;56.47;;;5.53;;
39654;SDS011;25336;59.944;11.010;2024-02-21T04:57:03;74.47;;;5.70;;
39654;SDS011;25336;59.944;11.010;2024-02-21T04:59:29;78.95;;;6.13;;
39654;SDS011;25336;59.944;11.010;2024-02-21T05:01:56;121.53;;;8.68;;
39654;SDS011;25336;59.944;11.010;2024-02-21T05:04:22;117.40;;;10.25;;
39654;SDS011;25336;59.944;11.010;2024-02-21T05:06:47;107.38;;;10.50;;
39654;SDS011;25336;59.944;11.010;2024-02-21T05:09:13;156.00;;;9.88;;
39654;SDS011;25336;59.944;11.010;2024-02-21T05:11:39;108.68;;;7.72;;
39654;SDS011;25336;59.944;11.010;2024-02-21T05:14:05;73.82;;;7.30;;
39654;SDS011;25336;59.944;11.010;2024-02-21T05:16:31;103.82;;;7.93;;
39654;SDS011;25336;59.944;11.010;2024-02-21T05:18:57;82.57;;;6.38;;
39654;SDS011;25336;59.944;11.010;2024-02-21T05:21:23;86.68;;;6.72;;
39654;SDS011;25336;59.944;11.010;2024-02-21T05:23:49;53.67;;;5.95;;
39654;SDS011;25336;59.944;11.010;2024-02-21T05:26:22;26.20;;;4.72;;
39654;SDS011;25336;59.944;11.010;2024-02-21T05:28:49;41.55;;;5.30;;
39654;SDS011;25336;59.944;11.010;2024-02-21T05:31:17;65.68;;;6.13;;
39654;SDS011;25336;59.944;11.010;2024-02-21T05:33:43;30.33;;;4.28;;
39654;SDS011;25336;59.944;11.010;2024-02-21T05:36:09;19.05;;;4.53;;
39654;SDS011;25336;59.944;11.010;2024-02-21T05:38:36;13.10;;;4.93;;
39654;SDS011;25336;59.944;11.010;2024-02-21T05:41:01;32.03;;;7.03;;
39654;SDS011;25336;59.944;11.010;2024-02-21T05:43:27;27.25;;;6.47;;
39654;SDS011;25336;59.944;11.010;2024-02-21T05:45:53;39.45;;;7.75;;
39654;SDS011;25336;59.944;11.010;2024-02-21T05:48:19;43.30;;;7.38;;
39654;SDS011;25336;59.944;11.010;2024-02-21T05:50:45;13.52;;;5.50;;
39654;SDS011;25336;59.944;11.010;2024-02-21T05:53:11;14.85;;;5.43;;
39654;SDS011;25336;59.944;11.010;2024-02-21T05:55:38;34.55;;;6.25;;
39654;SDS011;25336;59.944;11.010;2024-02-21T05:58:04;15.98;;;5.20;;
39654;SDS011;25336;59.944;11.010;2024-02-21T06:00:31;14.90;;;6.38;;
39654;SDS011;25336;59.944;11.010;2024-02-21T06:02:57;10.82;;;5.72;;
39654;SDS011;25336;59.944;11.010;2024-02-21T06:05:23;8.73;;;5.38;;
39654;SDS011;25336;59.944;11.010;2024-02-21T06:07:49;9.38;;;6.30;;
39654;SDS011;25336;59.944;11.010;2024-02-21T06:10:15;11.38;;;5.22;;
39654;SDS011;25336;59.944;11.010;2024-02-21T06:12:41;17.05;;;6.70;;
39654;SDS011;25336;59.944;11.010;2024-02-21T06:15:07;8.65;;;5.32;;
39654;SDS011;25336;59.944;11.010;2024-02-21T06:17:33;9.75;;;5.78;;
39654;SDS011;25336;59.944;11.010;2024-02-21T06:19:58;10.68;;;5.55;;
39654;SDS011;25336;59.944;11.010;2024-02-21T06:22:24;15.63;;;7.63;;
39654;SDS011;25336;59.944;11.010;2024-02-21T06:24:50;10.25;;;6.28;;
39654;SDS011;25336;59.944;11.010;2024-02-21T06:27:16;13.18;;;7.13;;
39654;SDS011;25336;59.944;11.010;2024-02-21T06:29:42;11.18;;;6.57;;
39654;SDS011;25336;59.944;11.010;2024-02-21T06:32:08;11.38;;;6.63;;
39654;SDS011;25336;59.944;11.010;2024-02-21T06:34:34;10.32;;;5.72;;
39654;SDS011;25336;59.944;11.010;2024-02-21T06:36:59;11.25;;;7.05;;
39654;SDS011;25336;59.944;11.010;2024-02-21T06:39:25;13.48;;;8.18;;
39654;SDS011;25336;59.944;11.010;2024-02-21T06:41:51;13.60;;;7.35;;
39654;SDS011;25336;59.944;11.010;2024-02-21T06:44:18;16.30;;;8.57;;
39654;SDS011;25336;59.944;11.010;2024-02-21T06:46:44;10.40;;;7.05;;
39654;SDS011;25336;59.944;11.010;2024-02-21T06:49:10;13.68;;;7.50;;
39654;SDS011;25336;59.944;11.010;2024-02-21T06:51:44;12.15;;;7.15;;
39654;SDS011;25336;59.944;11.010;2024-02-21T06:54:10;10.98;;;6.65;;
39654;SDS011;25336;59.944;11.010;2024-02-21T06:56:36;11.32;;;7.15;;
39654;SDS011;25336;59.944;11.010;2024-02-21T06:59:02;12.15;;;6.55;;
39654;SDS011;25336;59.944;11.010;2024-02-21T07:01:28;8.85;;;5.75;;
39654;SDS011;25336;59.944;11.010;2024-02-21T07:03:57;11.55;;;6.90;;
39654;SDS011;25336;59.944;11.010;2024-02-21T07:06:23;11.05;;;6.88;;
39654;SDS011;25336;59.944;11.010;2024-02-21T07:08:50;10.18;;;6.65;;
39654;SDS011;25336;59.944;11.010;2024-02-21T07:11:16;10.48;;;7.00;;
39654;SDS011;25336;59.944;11.010;2024-02-21T07:13:42;9.25;;;7.05;;
39654;SDS011;25336;59.944;11.010;2024-02-21T07:16:08;11.82;;;7.80;;
39654;SDS011;25336;59.944;11.010;2024-02-21T07:18:33;12.70;;;7.82;;
39654;SDS011;25336;59.944;11.010;2024-02-21T07:20:59;10.98;;;7.05;;
39654;SDS011;25336;59.944;11.010;2024-02-21T07:23:25;10.63;;;7.03;;
39654;SDS011;25336;59.944;11.010;2024-02-21T07:25:51;13.45;;;7.38;;
39654;SDS011;25336;59.944;11.010;2024-02-21T07:28:16;12.13;;;8.35;;
39654;SDS011;25336;59.944;11.010;2024-02-21T07:30:42;11.68;;;7.30;;
39654;SDS011;25336;59.944;11.010;2024-02-21T07:33:08;11.93;;;6.82;;
39654;SDS011;25336;59.944;11.010;2024-02-21T07:35:34;10.18;;;6.80;;
39654;SDS011;25336;59.944;11.010;2024-02-21T07:38:03;13.93;;;8.18;;
39654;SDS011;25336;59.944;11.010;2024-02-21T07:40:30;10.35;;;7.47;;
39654;SDS011;25336;59.944;11.010;2024-02-21T07:42:56;10.95;;;7.25;;
39654;SDS011;25336;59.944;11.010;2024-02-21T07:45:21;9.93;;;6.20;;
39654;SDS011;25336;59.944;11.010;2024-02-21T07:47:49;20.30;;;11.70;;
39654;SDS011;25336;59.944;11.010;2024-02-21T07:50:15;12.52;;;8.38;;
39654;SDS011;25336;59.944;11.010;2024-02-21T07:52:42;14.82;;;7.88;;
39654;SDS011;25336;59.944;11.010;2024-02-21T07:55:08;9.32;;;6.63;;
39654;SDS011;25336;59.944;11.010;2024-02-21T07:57:35;13.85;;;9.23;;
39654;SDS011;25336;59.944;11.010;2024-02-21T08:00:01;15.43;;;8.10;;
39654;SDS011;25336;59.944;11.010;2024-02-21T08:02:29;13.55;;;6.72;;
39654;SDS011;25336;59.944;11.010;2024-02-21T08:04:54;9.90;;;6.47;;
39654;SDS011;25336;59.944;11.010;2024-02-21T08:07:20;10.30;;;6.82;;
39654;SDS011;25336;59.944;11.010;2024-02-21T08:09:46;19.05;;;9.82;;
39654;SDS011;25336;59.944;11.010;2024-02-21T08:12:11;15.05;;;9.35;;
39654;SDS011;25336;59.944;11.010;2024-02-21T08:14:37;11.57;;;8.35;;
39654;SDS011;25336;59.944;11.010;2024-02-21T08:17:03;27.00;;;16.83;;
39654;SDS011;25336;59.944;11.010;2024-02-21T08:19:29;23.95;;;15.10;;
39654;SDS011;25336;59.944;11.010;2024-02-21T08:21:55;15.95;;;10.73;;
39654;SDS011;25336;59.944;11.010;2024-02-21T08:24:21;12.73;;;8.55;;
39654;SDS011;25336;59.944;11.010;2024-02-21T08:26:48;9.85;;;7.18;;
39654;SDS011;25336;59.944;11.010;2024-02-21T08:29:14;11.57;;;7.75;;
39654;SDS011;25336;59.944;11.010;2024-02-21T08:31:39;12.43;;;7.43;;
39654;SDS011;25336;59.944;11.010;2024-02-21T08:34:05;12.10;;;7.32;;
39654;SDS011;25336;59.944;11.010;2024-02-21T08:36:31;9.57;;;7.18;;
39654;SDS011;25336;59.944;11.010;2024-02-21T08:39:00;11.32;;;7.75;;
39654;SDS011;25336;59.944;11.010;2024-02-21T08:41:29;14.10;;;6.35;;
39654;SDS011;25336;59.944;11.010;2024-02-21T08:43:56;8.45;;;6.10;;
39654;SDS011;25336;59.944;11.010;2024-02-21T08:46:22;12.98;;;6.72;;
39654;SDS011;25336;59.944;11.010;2024-02-21T08:48:49;9.60;;;6.53;;
39654;SDS011;25336;59.944;11.010;2024-02-21T08:51:18;8.90;;;6.20;;
39654;SDS011;25336;59.944;11.010;2024-02-21T08:53:45;10.55;;;6.80;;
39654;SDS011;25336;59.944;11.010;2024-02-21T08:56:11;7.97;;;6.47;;
39654;SDS011;25336;59.944;11.010;2024-02-21T08:58:38;8.63;;;6.07;;
39654;SDS011;25336;59.944;11.010;2024-02-21T09:01:05;9.15;;;6.32;;
39654;SDS011;25336;59.944;11.010;2024-02-21T09:03:34;8.13;;;5.40;;
39654;SDS011;25336;59.944;11.010;2024-02-21T09:06:06;8.05;;;5.90;;
39654;SDS011;25336;59.944;11.010;2024-02-21T09:08:32;10.10;;;6.50;;
39654;SDS011;25336;59.944;11.010;2024-02-21T09:11:02;9.77;;;6.43;;
39654;SDS011;25336;59.944;11.010;2024-02-21T09:13:28;8.55;;;5.90;;
39654;SDS011;25336;59.944;11.010;2024-02-21T09:15:55;9.32;;;6.38;;
39654;SDS011;25336;59.944;11.010;2024-02-21T09:18:20;8.55;;;6.25;;
39654;SDS011;25336;59.944;11.010;2024-02-21T09:20:46;6.93;;;5.22;;
39654;SDS011;25336;59.944;11.010;2024-02-21T09:23:12;7.43;;;5.65;;
39654;SDS011;25336;59.944;11.010;2024-02-21T09:25:38;8.30;;;5.53;;
39654;SDS011;25336;59.944;11.010;2024-02-21T09:28:05;7.03;;;5.53;;
39654;SDS011;25336;59.944;11.010;2024-02-21T09:30:34;7.72;;;5.03;;
39654;SDS011;25336;59.944;11.010;2024-02-21T09:33:00;8.07;;;5.32;;
39654;SDS011;25336;59.944;11.010;2024-02-21T09:35:27;6.82;;;4.72;;
39654;SDS011;25336;59.944;11.010;2024-02-21T09:37:53;6.70;;;4.88;;
39654;SDS011;25336;59.944;11.010;2024-02-21T09:40:19;5.82;;;4.50;;
39654;SDS011;25336;59.944;11.010;2024-02-21T09:42:46;6.65;;;4.35;;
39654;SDS011;25336;59.944;11.010;2024-02-21T09:45:22;6.20;;;4.78;;
39654;SDS011;25336;59.944;11.010;2024-02-21T09:50:49;7.50;;;4.43;;
39654;SDS011;25336;59.944;11.010;2024-02-21T09:53:15;6.05;;;4.70;;
39654;SDS011;25336;59.944;11.010;2024-02-21T09:55:42;8.70;;;5.65;;
39654;SDS011;25336;59.944;11.010;2024-02-21T09:58:08;8.35;;;5.75;;
39654;SDS011;25336;59.944;11.010;2024-02-21T10:00:37;7.75;;;6.15;;
39654;SDS011;25336;59.944;11.010;2024-02-21T10:03:04;7.88;;;5.22;;
39654;SDS011;25336;59.944;11.010;2024-02-21T10:05:35;8.40;;;5.63;;
39654;SDS011;25336;59.944;11.010;2024-02-21T10:08:02;7.18;;;4.85;;
39654;SDS011;25336;59.944;11.010;2024-02-21T10:10:29;5.45;;;4.68;;
39654;SDS011;25336;59.944;11.010;2024-02-21T10:12:55;6.85;;;5.30;;
39654;SDS011;25336;59.944;11.010;2024-02-21T10:15:23;6.13;;;4.63;;
39654;SDS011;25336;59.944;11.010;2024-02-21T10:17:57;7.13;;;4.32;;
39654;SDS011;25336;59.944;11.010;2024-02-21T10:20:24;4.97;;;4.15;;
39654;SDS011;25336;59.944;11.010;2024-02-21T10:22:59;5.57;;;4.35;;
39654;SDS011;25336;59.944;11.010;2024-02-21T10:25:27;3.90;;;3.47;;
39654;SDS011;25336;59.944;11.010;2024-02-21T10:27:53;7.32;;;4.05;;
39654;SDS011;25336;59.944;11.010;2024-02-21T10:30:19;6.60;;;4.20;;
39654;SDS011;25336;59.944;11.010;2024-02-21T10:32:50;6.40;;;4.95;;
39654;SDS011;25336;59.944;11.010;2024-02-21T10:35:26;7.65;;;4.75;;
39654;SDS011;25336;59.944;11.010;2024-02-21T10:37:56;6.10;;;4.40;;
39654;SDS011;25336;59.944;11.010;2024-02-21T10:40:26;7.53;;;4.97;;
39654;SDS011;25336;59.944;11.010;2024-02-21T10:43:05;6.55;;;4.97;;
39654;SDS011;25336;59.944;11.010;2024-02-21T10:45:35;8.45;;;4.97;;
39654;SDS011;25336;59.944;11.010;2024-02-21T10:48:03;6.35;;;5.07;;
39654;SDS011;25336;59.944;11.010;2024-02-21T10:56:16;6.20;;;4.53;;
39654;SDS011;25336;59.944;11.010;2024-02-21T10:58:44;6.85;;;4.75;;
39654;SDS011;25336;59.944;11.010;2024-02-21T11:01:12;6.18;;;4.97;;
39654;SDS011;25336;59.944;11.010;2024-02-21T11:03:41;5.95;;;4.63;;
39654;SDS011;25336;59.944;11.010;2024-02-21T11:06:09;5.07;;;3.90;;
39654;SDS011;25336;59.944;11.010;2024-02-21T11:08:37;5.45;;;3.80;;
39654;SDS011;25336;59.944;11.010;2024-02-21T11:11:04;5.43;;;3.92;;
39654;SDS011;25336;59.944;11.010;2024-02-21T11:13:37;4.28;;;3.40;;
39654;SDS011;25336;59.944;11.010;2024-02-21T11:16:09;5.28;;;3.90;;
39654;SDS011;25336;59.944;11.010;2024-02-21T11:18:37;5.05;;;4.22;;
39654;SDS011;25336;59.944;11.010;2024-02-21T11:21:04;3.90;;;3.38;;
39654;SDS011;25336;59.944;11.010;2024-02-21T11:23:30;4.80;;;3.80;;
39654;SDS011;25336;59.944;11.010;2024-02-21T11:28:32;4.35;;;3.28;;
39654;SDS011;25336;59.944;11.010;2024-02-21T11:31:13;4.05;;;3.25;;
39654;SDS011;25336;59.944;11.010;2024-02-21T11:33:42;4.03;;;3.45;;
39654;SDS011;25336;59.944;11.010;2024-02-21T11:36:21;4.43;;;3.55;;
39654;SDS011;25336;59.944;11.010;2024-02-21T11:38:49;3.75;;;3.35;;
39654;SDS011;25336;59.944;11.010;2024-02-21T11:41:17;4.00;;;3.50;;
39654;SDS011;25336;59.944;11.010;2024-02-21T11:43:42;3.92;;;3.20;;
39654;SDS011;25336;59.944;11.010;2024-02-21T11:46:08;5.57;;;3.55;;
39654;SDS011;25336;59.944;11.010;2024-02-21T11:48:34;4.25;;;3.35;;
39654;SDS011;25336;59.944;11.010;2024-02-21T11:51:00;5.07;;;3.92;;
39654;SDS011;25336;59.944;11.010;2024-02-21T11:53:26;5.45;;;4.10;;
39654;SDS011;25336;59.944;11.010;2024-02-21T11:55:55;10.52;;;3.88;;
39654;SDS011;25336;59.944;11.010;2024-02-21T11:58:21;4.60;;;3.72;;
39654;SDS011;25336;59.944;11.010;2024-02-21T12:00:47;4.85;;;4.18;;
39654;SDS011;25336;59.944;11.010;2024-02-21T12:03:14;3.63;;;3.33;;
39654;SDS011;25336;59.944;11.010;2024-02-21T12:05:40;3.83;;;3.22;;
39654;SDS011;25336;59.944;11.010;2024-02-21T12:08:07;3.92;;;3.53;;
39654;SDS011;25336;59.944;11.010;2024-02-21T12:10:35;3.92;;;3.20;;
39654;SDS011;25336;59.944;11.010;2024-02-21T12:13:10;4.00;;;3.58;;
39654;SDS011;25336;59.944;11.010;2024-02-21T12:15:38;4.28;;;3.85;;
39654;SDS011;25336;59.944;11.010;2024-02-21T12:18:05;5.90;;;3.88;;
39654;SDS011;25336;59.944;11.010;2024-02-21T12:20:30;5.70;;;3.30;;
39654;SDS011;25336;59.944;11.010;2024-02-21T12:22:59;6.40;;;4.85;;
39654;SDS011;25336;59.944;11.010;2024-02-21T12:25:25;4.60;;;4.20;;
39654;SDS011;25336;59.944;11.010;2024-02-21T12:27:52;5.53;;;4.18;;
39654;SDS011;25336;59.944;11.010;2024-02-21T12:30:18;5.60;;;4.88;;
39654;SDS011;25336;59.944;11.010;2024-02-21T12:32:44;7.80;;;5.68;;
39654;SDS011;25336;59.944;11.010;2024-02-21T12:35:11;5.65;;;4.05;;
39654;SDS011;25336;59.944;11.010;2024-02-21T12:37:36;6.82;;;4.35;;
39654;SDS011;25336;59.944;11.010;2024-02-21T12:40:04;4.10;;;3.70;;
39654;SDS011;25336;59.944;11.010;2024-02-21T12:42:32;5.55;;;3.67;;
39654;SDS011;25336;59.944;11.010;2024-02-21T12:44:58;4.18;;;3.67;;
39654;SDS011;25336;59.944;11.010;2024-02-21T12:47:24;5.07;;;4.50;;
39654;SDS011;25336;59.944;11.010;2024-02-21T12:49:52;6.15;;;4.63;;
39654;SDS011;25336;59.944;11.010;2024-02-21T12:52:18;4.00;;;3.55;;
39654;SDS011;25336;59.944;11.010;2024-02-21T12:54:43;4.40;;;4.00;;
39654;SDS011;25336;59.944;11.010;2024-02-21T12:57:09;4.95;;;4.00;;
39654;SDS011;25336;59.944;11.010;2024-02-21T12:59:35;5.25;;;4.10;;
39654;SDS011;25336;59.944;11.010;2024-02-21T13:02:01;4.28;;;3.60;;
39654;SDS011;25336;59.944;11.010;2024-02-21T13:04:26;5.28;;;3.63;;
39654;SDS011;25336;59.944;11.010;2024-02-21T13:06:52;3.92;;;3.40;;
39654;SDS011;25336;59.944;11.010;2024-02-21T13:09:18;4.18;;;3.70;;
39654;SDS011;25336;59.944;11.010;2024-02-21T13:11:45;3.47;;;3.17;;
39654;SDS011;25336;59.944;11.010;2024-02-21T13:14:11;6.03;;;3.75;;
39654;SDS011;25336;59.944;11.010;2024-02-21T13:16:37;3.83;;;3.53;;
39654;SDS011;25336;59.944;11.010;2024-02-21T13:19:06;5.13;;;3.13;;
39654;SDS011;25336;59.944;11.010;2024-02-21T13:21:33;3.67;;;3.15;;
39654;SDS011;25336;59.944;11.010;2024-02-21T13:24:00;3.17;;;2.88;;
39654;SDS011;25336;59.944;11.010;2024-02-21T13:26:26;2.92;;;2.67;;
39654;SDS011;25336;59.944;11.010;2024-02-21T13:28:52;3.03;;;2.78;;
39654;SDS011;25336;59.944;11.010;2024-02-21T13:31:18;2.70;;;2.42;;
39654;SDS011;25336;59.944;11.010;2024-02-21T13:33:44;2.90;;;2.58;;
39654;SDS011;25336;59.944;11.010;2024-02-21T13:36:10;2.88;;;2.67;;
39654;SDS011;25336;59.944;11.010;2024-02-21T13:38:35;3.40;;;3.08;;
39654;SDS011;25336;59.944;11.010;2024-02-21T13:41:01;3.45;;;3.15;;
39654;SDS011;25336;59.944;11.010;2024-02-21T13:43:27;3.28;;;2.75;;
39654;SDS011;25336;59.944;11.010;2024-02-21T13:45:57;3.45;;;2.70;;
39654;SDS011;25336;59.944;11.010;2024-02-21T13:48:24;3.17;;;2.88;;
39654;SDS011;25336;59.944;11.010;2024-02-21T13:50:50;3.75;;;2.65;;
39654;SDS011;25336;59.944;11.010;2024-02-21T13:53:16;3.80;;;2.67;;
39654;SDS011;25336;59.944;11.010;2024-02-21T13:55:45;2.65;;;2.33;;
39654;SDS011;25336;59.944;11.010;2024-02-21T13:58:11;3.42;;;2.85;;
39654;SDS011;25336;59.944;11.010;2024-02-21T14:00:37;2.97;;;2.42;;
39654;SDS011;25336;59.944;11.010;2024-02-21T14:03:02;2.95;;;2.63;;
39654;SDS011;25336;59.944;11.010;2024-02-21T14:05:28;2.97;;;2.60;;
39654;SDS011;25336;59.944;11.010;2024-02-21T14:07:55;3.20;;;2.80;;
39654;SDS011;25336;59.944;11.010;2024-02-21T14:10:21;3.35;;;2.80;;
39654;SDS011;25336;59.944;11.010;2024-02-21T14:12:47;2.65;;;2.45;;
39654;SDS011;25336;59.944;11.010;2024-02-21T14:15:13;3.17;;;2.88;;
39654;SDS011;25336;59.944;11.010;2024-02-21T14:17:39;3.25;;;2.55;;
39654;SDS011;25336;59.944;11.010;2024-02-21T14:20:06;3.47;;;2.28;;
39654;SDS011;25336;59.944;11.010;2024-02-21T14:22:33;2.75;;;2.50;;
39654;SDS011;25336;59.944;11.010;2024-02-21T14:24:59;3.45;;;2.88;;
39654;SDS011;25336;59.944;11.010;2024-02-21T14:27:25;2.90;;;2.60;;
39654;SDS011;25336;59.944;11.010;2024-02-21T14:29:51;2.83;;;2.58;;
39654;SDS011;25336;59.944;11.010;2024-02-21T14:32:19;5.07;;;2.72;;
39654;SDS011;25336;59.944;11.010;2024-02-21T14:34:45;3.80;;;2.83;;
39654;SDS011;25336;59.944;11.010;2024-02-21T14:37:11;3.00;;;2.78;;